createdAt,value
2016-09-13T00:00:20.457Z,19.2
2016-09-13T00:01:31.659Z,19.17
2016-09-13T00:02:42.660Z,19.23
2016-09-13T00:03:53.666Z,19.17
2016-09-13T00:05:04.667Z,19.19
2016-09-13T00:06:15.670Z,19.13
2016-09-13T00:07:26.675Z,19.13
2016-09-13T00:08:37.675Z,19.2
2016-09-13T00:09:48.684Z,19.28
2016-09-13T00:10:59.687Z,19.24
2016-09-13T00:12:10.699Z,19.12
2016-09-13T00:13:21.901Z,19.12
2016-09-13T00:14:32.903Z,19.24
2016-09-13T00:15:43.906Z,19.15
2016-09-13T00:16:54.905Z,19.15
2016-09-13T00:18:06.110Z,19.09
2016-09-13T00:19:17.319Z,19.09
2016-09-13T00:20:28.325Z,18.93
2016-09-13T00:21:39.531Z,19.02
2016-09-13T00:22:50.536Z,19.02
2016-09-13T00:24:01.542Z,18.91
2016-09-13T00:25:12.749Z,18.93
2016-09-13T00:26:23.961Z,18.93
2016-09-13T00:27:35.170Z,18.84
2016-09-13T00:28:46.175Z,18.94
2016-09-13T00:29:57.382Z,18.82
2016-09-13T00:31:08.379Z,18.86
2016-09-13T00:32:19.396Z,18.81
2016-09-13T00:33:30.391Z,18.78
2016-09-13T00:34:41.396Z,18.79
2016-09-13T00:35:52.399Z,18.81
2016-09-13T00:37:03.802Z,18.81
2016-09-13T00:38:14.809Z,18.81
2016-09-13T00:39:25.811Z,18.87
2016-09-13T00:40:36.815Z,18.91
2016-09-13T00:41:47.826Z,18.82
2016-09-13T00:42:58.891Z,18.84
2016-09-13T00:44:10.106Z,18.87
2016-09-13T00:45:21.109Z,18.81
2016-09-13T00:46:32.112Z,18.82
2016-09-13T00:47:43.113Z,18.81
2016-09-13T00:48:54.112Z,18.79
2016-09-13T00:50:05.131Z,18.81
2016-09-13T00:51:16.140Z,18.78
2016-09-13T00:52:27.149Z,18.69
2016-09-13T00:53:38.148Z,18.6
2016-09-13T00:54:49.152Z,18.69
2016-09-13T00:56:00.155Z,18.56
2016-09-13T00:57:11.168Z,18.5
2016-09-13T00:58:22.164Z,18.49
2016-09-13T00:59:33.374Z,18.44
2016-09-13T01:00:44.577Z,18.53
2016-09-13T01:01:55.574Z,18.5
2016-09-13T01:03:06.570Z,18.42
2016-09-13T01:04:17.582Z,18.53
2016-09-13T01:05:28.587Z,18.5
2016-09-13T01:06:39.587Z,18.53
2016-09-13T01:07:50.590Z,18.54
2016-09-13T01:09:01.593Z,18.49
2016-09-13T01:10:12.593Z,18.51
2016-09-13T01:11:23.798Z,18.45
2016-09-13T01:12:34.809Z,18.5
2016-09-13T01:13:45.829Z,18.51
2016-09-13T01:14:56.838Z,18.54
2016-09-13T01:16:07.837Z,18.49
2016-09-13T01:17:19.238Z,18.49
2016-09-13T01:18:30.240Z,18.47
2016-09-13T01:19:41.450Z,18.53
2016-09-13T01:20:52.663Z,18.45
2016-09-13T01:22:03.872Z,18.49
2016-09-13T01:23:14.875Z,18.44
2016-09-13T01:24:25.880Z,18.31
2016-09-13T01:25:37.078Z,18.36
2016-09-13T01:26:48.083Z,18.35
2016-09-13T01:27:59.087Z,18.27
2016-09-13T01:29:10.091Z,18.44
2016-09-13T01:30:21.091Z,18.42
2016-09-13T01:31:32.095Z,18.35
2016-09-13T01:32:43.321Z,18.32
2016-09-13T01:33:54.324Z,18.32
2016-09-13T01:35:05.320Z,18.31
2016-09-13T01:36:16.526Z,18.31
2016-09-13T01:37:27.541Z,18.31
2016-09-13T01:38:38.539Z,18.47
2016-09-13T01:39:49.540Z,18.32
2016-09-13T01:41:00.540Z,18.36
2016-09-13T01:42:11.546Z,18.26
2016-09-13T01:43:22.602Z,18.49
2016-09-13T01:44:33.614Z,18.45
2016-09-13T01:45:44.626Z,18.42
2016-09-13T01:46:55.630Z,18.34
2016-09-13T01:48:06.646Z,18.34
2016-09-13T01:49:17.670Z,18.34
2016-09-13T01:50:29.079Z,18.26
2016-09-13T01:51:40.298Z,18.29
2016-09-13T01:52:51.311Z,18.35
2016-09-13T01:54:02.512Z,18.34
2016-09-13T01:55:13.727Z,18.23
2016-09-13T01:56:24.740Z,18.38
2016-09-13T01:57:35.950Z,18.31
2016-09-13T01:58:46.954Z,18.26
2016-09-13T01:59:57.963Z,18.27
2016-09-13T02:01:09.173Z,18.27
2016-09-13T02:02:20.168Z,18.19
2016-09-13T02:03:31.176Z,18.23
2016-09-13T02:04:42.184Z,18.27
2016-09-13T02:05:53.385Z,18.23
2016-09-13T02:07:04.387Z,18.24
2016-09-13T02:08:15.390Z,18.2
2016-09-13T02:09:26.412Z,18.21
2016-09-13T02:10:37.425Z,18.19
2016-09-13T02:11:48.431Z,18.14
2016-09-13T02:12:59.639Z,18.21
2016-09-13T02:14:10.844Z,18.11
2016-09-13T02:15:21.844Z,18.16
2016-09-13T02:16:32.851Z,18.11
2016-09-13T02:17:43.853Z,18.03
2016-09-13T02:18:54.859Z,18.01
2016-09-13T02:20:05.873Z,18.03
2016-09-13T02:21:16.877Z,17.99
2016-09-13T02:22:27.884Z,18.03
2016-09-13T02:23:38.897Z,18.05
2016-09-13T02:24:49.901Z,17.98
2016-09-13T02:26:00.908Z,18.05
2016-09-13T02:27:12.112Z,18.03
2016-09-13T02:28:23.110Z,18.05
2016-09-13T02:29:34.112Z,18.05
2016-09-13T02:30:45.110Z,18.01
2016-09-13T02:31:56.111Z,17.95
2016-09-13T02:33:07.111Z,17.9
2016-09-13T02:34:18.115Z,17.96
2016-09-13T02:35:29.127Z,17.84
2016-09-13T02:36:40.325Z,17.98
2016-09-13T02:37:51.328Z,17.88
2016-09-13T02:39:02.334Z,17.8
2016-09-13T02:40:13.333Z,17.79
2016-09-13T02:41:24.341Z,17.74
2016-09-13T02:42:35.355Z,17.76
2016-09-13T02:43:46.404Z,17.66
2016-09-13T02:44:57.420Z,17.66
2016-09-13T02:46:08.419Z,17.68
2016-09-13T02:47:19.423Z,17.73
2016-09-13T02:48:30.424Z,17.65
2016-09-13T02:49:41.428Z,17.69
2016-09-13T02:50:52.426Z,17.69
2016-09-13T02:52:03.436Z,17.68
2016-09-13T02:53:14.451Z,17.74
2016-09-13T02:54:25.650Z,17.66
2016-09-13T02:55:36.682Z,17.69
2016-09-13T02:56:47.691Z,17.76
2016-09-13T02:57:58.704Z,17.69
2016-09-13T02:59:09.911Z,17.71
2016-09-13T03:00:21.114Z,17.76
2016-09-13T03:01:32.104Z,17.63
2016-09-13T03:02:43.307Z,17.66
2016-09-13T03:03:54.507Z,17.54
2016-09-13T03:05:05.527Z,17.55
2016-09-13T03:06:16.531Z,17.49
2016-09-13T03:07:27.536Z,17.54
2016-09-13T03:08:38.532Z,17.52
2016-09-13T03:09:49.541Z,17.58
2016-09-13T03:11:00.549Z,17.5
2016-09-13T03:12:11.566Z,17.54
2016-09-13T03:13:22.771Z,17.62
2016-09-13T03:14:33.773Z,17.62
2016-09-13T03:15:44.779Z,17.49
2016-09-13T03:16:55.779Z,17.39
2016-09-13T03:18:06.781Z,17.47
2016-09-13T03:19:17.776Z,17.47
2016-09-13T03:20:28.786Z,17.39
2016-09-13T03:21:39.995Z,17.38
2016-09-13T03:22:50.997Z,17.43
2016-09-13T03:24:02.003Z,17.35
2016-09-13T03:25:13.007Z,17.38
2016-09-13T03:26:24.008Z,17.38
2016-09-13T03:27:35.018Z,17.36
2016-09-13T03:28:46.021Z,17.3
2016-09-13T03:29:57.231Z,17.3
2016-09-13T03:31:08.234Z,17.32
2016-09-13T03:32:19.240Z,17.31
2016-09-13T03:33:30.259Z,17.25
2016-09-13T03:34:41.264Z,17.25
2016-09-13T03:35:52.673Z,17.18
2016-09-13T03:37:03.677Z,17.24
2016-09-13T03:38:14.676Z,17.24
2016-09-13T03:39:25.683Z,17.25
2016-09-13T03:40:36.694Z,17.22
2016-09-13T03:41:47.683Z,17.25
2016-09-13T03:42:58.685Z,17.18
2016-09-13T03:44:09.738Z,17.22
2016-09-13T03:45:20.758Z,17.24
2016-09-13T03:46:31.760Z,17.24
2016-09-13T03:47:42.774Z,17.27
2016-09-13T03:48:53.774Z,17.2
2016-09-13T03:50:04.780Z,17.28
2016-09-13T03:51:15.784Z,17.27
2016-09-13T03:52:26.784Z,17.24
2016-09-13T03:53:37.988Z,17.12
2016-09-13T03:54:48.987Z,17.22
2016-09-13T03:55:59.991Z,17.15
2016-09-13T03:57:10.989Z,17.22
2016-09-13T03:58:21.992Z,17.25
2016-09-13T03:59:32.995Z,17.22
2016-09-13T04:00:43.997Z,17.07
2016-09-13T04:01:55.205Z,17.18
2016-09-13T04:03:06.208Z,17.15
2016-09-13T04:04:17.203Z,17.25
2016-09-13T04:05:28.205Z,17.2
2016-09-13T04:06:39.215Z,17.09
2016-09-13T04:07:50.219Z,17.13
2016-09-13T04:09:01.213Z,17.13
2016-09-13T04:10:12.223Z,17.17
2016-09-13T04:11:23.219Z,17.17
2016-09-13T04:12:34.215Z,17.2
2016-09-13T04:13:45.222Z,17.12
2016-09-13T04:14:56.224Z,17.05
2016-09-13T04:16:07.434Z,17.05
2016-09-13T04:17:18.443Z,17.02
2016-09-13T04:18:29.848Z,17.07
2016-09-13T04:19:40.853Z,17.05
2016-09-13T04:20:52.056Z,17.07
2016-09-13T04:22:03.055Z,17.15
2016-09-13T04:23:14.057Z,17.07
2016-09-13T04:24:25.052Z,17.1
2016-09-13T04:25:36.049Z,17.07
2016-09-13T04:26:47.065Z,17.13
2016-09-13T04:27:58.068Z,17.12
2016-09-13T04:29:09.268Z,17.1
2016-09-13T04:30:20.267Z,17.09
2016-09-13T04:31:31.269Z,17.07
2016-09-13T04:32:42.269Z,17.15
2016-09-13T04:33:53.474Z,17.07
2016-09-13T04:35:04.473Z,17.1
2016-09-13T04:36:15.472Z,17.03
2016-09-13T04:37:26.874Z,17.12
2016-09-13T04:38:37.873Z,17.13
2016-09-13T04:39:49.085Z,17.17
2016-09-13T04:41:00.084Z,17.1
2016-09-13T04:42:11.092Z,17.13
2016-09-13T04:43:22.294Z,17.09
2016-09-13T04:44:33.340Z,17.06
2016-09-13T04:45:44.546Z,17.13
2016-09-13T04:46:55.549Z,17.03
2016-09-13T04:48:06.553Z,17.05
2016-09-13T04:49:17.565Z,17.05
2016-09-13T04:50:28.575Z,17.06
2016-09-13T04:51:39.568Z,17
2016-09-13T04:52:50.564Z,16.99
2016-09-13T04:54:01.561Z,16.99
2016-09-13T04:55:12.563Z,17.02
2016-09-13T04:56:23.561Z,17
2016-09-13T04:57:34.563Z,16.97
2016-09-13T04:58:45.566Z,17
2016-09-13T04:59:56.566Z,17
2016-09-13T05:01:07.571Z,16.94
2016-09-13T05:02:18.578Z,16.94
2016-09-13T05:03:29.571Z,16.85
2016-09-13T05:04:40.586Z,16.97
2016-09-13T05:05:51.587Z,16.91
2016-09-13T05:07:02.587Z,16.94
2016-09-13T05:08:13.588Z,16.9
2016-09-13T05:09:24.591Z,16.91
2016-09-13T05:10:35.590Z,16.91
2016-09-13T05:11:46.600Z,16.91
2016-09-13T05:12:57.588Z,16.85
2016-09-13T05:14:08.586Z,16.91
2016-09-13T05:15:19.601Z,16.9
2016-09-13T05:16:30.597Z,16.9
2016-09-13T05:17:41.598Z,16.95
2016-09-13T05:18:52.791Z,16.92
2016-09-13T05:20:04.197Z,16.94
2016-09-13T05:21:15.197Z,16.91
2016-09-13T05:22:26.196Z,16.92
2016-09-13T05:23:37.210Z,16.94
2016-09-13T05:24:48.212Z,16.94
2016-09-13T05:25:59.263Z,16.94
2016-09-13T05:27:10.462Z,16.99
2016-09-13T05:28:21.479Z,16.95
2016-09-13T05:29:32.481Z,16.94
2016-09-13T05:30:43.488Z,17.02
2016-09-13T05:31:54.495Z,17
2016-09-13T05:33:05.496Z,16.97
2016-09-13T05:34:16.498Z,17
2016-09-13T05:35:27.509Z,17.02
2016-09-13T05:36:38.517Z,17.06
2016-09-13T05:37:49.529Z,16.99
2016-09-13T05:39:00.527Z,17.06
2016-09-13T05:40:11.532Z,17.09
2016-09-13T05:41:22.734Z,17.1
2016-09-13T05:42:33.743Z,17.13
2016-09-13T05:43:44.752Z,17.12
2016-09-13T05:44:56.004Z,17.13
2016-09-13T05:46:07.004Z,17.21
2016-09-13T05:47:18.008Z,17.15
2016-09-13T05:48:29.207Z,17.24
2016-09-13T05:49:40.208Z,17.09
2016-09-13T05:50:51.212Z,17.27
2016-09-13T05:52:02.218Z,17.28
2016-09-13T05:53:13.227Z,17.24
2016-09-13T05:54:24.237Z,17.3
2016-09-13T05:55:35.238Z,17.27
2016-09-13T05:56:46.241Z,17.3
2016-09-13T05:57:57.249Z,17.32
2016-09-13T05:59:08.252Z,17.38
2016-09-13T06:00:19.454Z,17.38
2016-09-13T06:01:30.656Z,17.5
2016-09-13T06:02:41.661Z,17.45
2016-09-13T06:03:52.673Z,17.45
2016-09-13T06:05:03.677Z,17.55
2016-09-13T06:06:14.678Z,17.57
2016-09-13T06:07:25.679Z,17.6
2016-09-13T06:08:36.682Z,17.55
2016-09-13T06:09:47.691Z,17.69
2016-09-13T06:10:58.693Z,17.65
2016-09-13T06:12:09.897Z,17.69
2016-09-13T06:13:20.915Z,17.77
2016-09-13T06:14:31.917Z,17.81
2016-09-13T06:15:42.924Z,17.88
2016-09-13T06:16:53.927Z,17.94
2016-09-13T06:18:04.938Z,17.95
2016-09-13T06:19:15.935Z,17.99
2016-09-13T06:20:26.940Z,17.99
2016-09-13T06:21:37.948Z,18.08
2016-09-13T06:22:48.949Z,18.11
2016-09-13T06:23:59.951Z,18.19
2016-09-13T06:25:10.962Z,18.16
2016-09-13T06:26:21.964Z,18.24
2016-09-13T06:27:32.979Z,18.19
2016-09-13T06:28:44.005Z,18.38
2016-09-13T06:29:55.016Z,18.32
2016-09-13T06:31:06.216Z,18.36
2016-09-13T06:32:17.208Z,18.36
2016-09-13T06:33:28.202Z,18.42
2016-09-13T06:34:39.408Z,18.44
2016-09-13T06:35:50.413Z,18.44
2016-09-13T06:37:01.414Z,18.57
2016-09-13T06:38:12.415Z,18.63
2016-09-13T06:39:23.415Z,18.74
2016-09-13T06:40:34.621Z,18.75
2016-09-13T06:41:45.621Z,18.81
2016-09-13T06:42:56.617Z,18.81
2016-09-13T06:44:07.623Z,18.94
2016-09-13T06:45:18.681Z,19.35
2016-09-13T06:46:29.697Z,19.8
2016-09-13T06:47:40.702Z,20.23
2016-09-13T06:48:51.704Z,20.75
2016-09-13T06:50:02.711Z,21.22
2016-09-13T06:51:13.725Z,21.68
2016-09-13T06:52:24.730Z,22.09
2016-09-13T06:53:35.988Z,22.55
2016-09-13T06:54:46.996Z,22.85
2016-09-13T06:55:58.210Z,23.16
2016-09-13T06:57:09.219Z,23.42
2016-09-13T06:58:20.232Z,23.77
2016-09-13T06:59:31.244Z,24.11
2016-09-13T07:00:42.267Z,24.34
2016-09-13T07:01:53.281Z,24.69
2016-09-13T07:03:04.289Z,24.85
2016-09-13T07:04:15.299Z,25.05
2016-09-13T07:05:26.309Z,25.29
2016-09-13T07:06:37.326Z,25.45
2016-09-13T07:07:48.340Z,25.71
2016-09-13T07:08:59.357Z,25.89
2016-09-13T07:10:10.376Z,26.04
2016-09-13T07:11:21.387Z,26.22
2016-09-13T07:12:32.396Z,26.27
2016-09-13T07:13:43.404Z,26.37
2016-09-13T07:14:54.424Z,26.56
2016-09-13T07:16:05.663Z,26.71
2016-09-13T07:17:16.684Z,26.59
2016-09-13T07:18:27.698Z,26.42
2016-09-13T07:19:38.717Z,26.27
2016-09-13T07:20:49.735Z,26.12
2016-09-13T07:22:00.959Z,26.23
2016-09-13T07:23:12.181Z,26.52
2016-09-13T07:24:23.204Z,26.9
2016-09-13T07:25:34.223Z,26.97
2016-09-13T07:26:45.647Z,27.36
2016-09-13T07:27:56.662Z,27.59
2016-09-13T07:29:07.676Z,27.84
2016-09-13T07:30:18.718Z,27.96
2016-09-13T07:31:29.943Z,28.14
2016-09-13T07:32:41.162Z,28.26
2016-09-13T07:33:52.184Z,28.46
2016-09-13T07:35:03.201Z,28.54
2016-09-13T07:36:14.220Z,28.83
2016-09-13T07:37:25.236Z,29.02
2016-09-13T07:38:36.250Z,29.23
2016-09-13T07:39:47.267Z,29.3
2016-09-13T07:40:58.894Z,29.6
2016-09-13T07:42:10.117Z,29.72
2016-09-13T07:43:21.140Z,30
2016-09-13T07:44:32.159Z,30.03
2016-09-13T07:45:43.632Z,30.14
2016-09-13T07:46:54.662Z,30.22
2016-09-13T07:48:05.679Z,30.35
2016-09-13T07:49:16.716Z,30.6
2016-09-13T07:50:27.745Z,30.78
2016-09-13T07:51:38.771Z,31.08
2016-09-13T07:52:49.792Z,31.21
2016-09-13T07:54:01.016Z,31.44
2016-09-13T07:55:12.037Z,31.56
2016-09-13T07:56:23.056Z,31.67
2016-09-13T07:57:34.301Z,31.82
2016-09-13T07:58:45.328Z,31.98
2016-09-13T07:59:56.356Z,32.2
2016-09-13T08:01:07.578Z,32.34
2016-09-13T08:02:18.604Z,32.31
2016-09-13T08:03:29.841Z,32.53
2016-09-13T08:04:40.857Z,32.57
2016-09-13T08:05:51.881Z,32.79
2016-09-13T08:07:02.912Z,32.9
2016-09-13T08:08:13.947Z,32.87
2016-09-13T08:09:24.966Z,32.94
2016-09-13T08:10:36.200Z,33.17
2016-09-13T08:11:47.433Z,33.32
2016-09-13T08:12:58.466Z,33.43
2016-09-13T08:14:09.512Z,33.5
2016-09-13T08:15:20.535Z,33.59
2016-09-13T08:16:31.755Z,33.62
2016-09-13T08:17:42.784Z,33.73
2016-09-13T08:18:53.810Z,33.9
2016-09-13T08:20:04.844Z,33.78
2016-09-13T08:21:16.064Z,33.83
2016-09-13T08:22:27.091Z,33.8
2016-09-13T08:23:38.118Z,33.8
2016-09-13T08:24:49.151Z,33.99
2016-09-13T08:26:00.177Z,34
2016-09-13T08:27:11.204Z,34.18
2016-09-13T08:28:22.222Z,34.45
2016-09-13T08:29:33.245Z,34.55
2016-09-13T08:30:44.263Z,34.91
2016-09-13T08:31:55.291Z,35.05
2016-09-13T08:33:06.318Z,35.21
2016-09-13T08:34:17.344Z,35.33
2016-09-13T08:35:28.376Z,35.31
2016-09-13T08:36:39.413Z,35.43
2016-09-13T08:37:50.439Z,35.55
2016-09-13T08:39:01.468Z,35.5
2016-09-13T08:40:12.692Z,35.45
2016-09-13T08:41:23.723Z,35.53
2016-09-13T08:42:34.749Z,35.52
2016-09-13T08:43:45.781Z,35.72
2016-09-13T08:44:56.809Z,35.94
2016-09-13T08:46:07.894Z,35.76
2016-09-13T08:47:18.933Z,35.76
2016-09-13T08:48:29.959Z,35.8
2016-09-13T08:49:41.001Z,35.86
2016-09-13T08:50:52.429Z,35.82
2016-09-13T08:52:03.461Z,35.84
2016-09-13T08:53:14.692Z,35.83
2016-09-13T08:54:25.724Z,35.83
2016-09-13T08:55:36.761Z,35.86
2016-09-13T08:56:47.794Z,35.87
2016-09-13T08:57:59.032Z,36.12
2016-09-13T08:59:10.265Z,36.18
2016-09-13T09:00:21.293Z,36.12
2016-09-13T09:01:32.313Z,36.22
2016-09-13T09:02:43.337Z,36.37
2016-09-13T09:03:54.365Z,36.56
2016-09-13T09:05:05.398Z,36.62
2016-09-13T09:06:16.426Z,36.61
2016-09-13T09:07:27.862Z,36.7
2016-09-13T09:08:39.087Z,36.83
2016-09-13T09:09:50.114Z,36.9
2016-09-13T09:11:01.156Z,36.93
2016-09-13T09:12:12.187Z,37.07
2016-09-13T09:13:23.209Z,37.07
2016-09-13T09:14:34.241Z,36.96
2016-09-13T09:15:45.276Z,36.84
2016-09-13T09:16:56.508Z,36.75
2016-09-13T09:18:07.758Z,37.02
2016-09-13T09:19:18.985Z,37.07
2016-09-13T09:20:30.220Z,37.07
2016-09-13T09:21:41.250Z,37.02
2016-09-13T09:22:52.275Z,37
2016-09-13T09:24:03.302Z,37.08
2016-09-13T09:25:14.329Z,37.17
2016-09-13T09:26:25.353Z,37.29
2016-09-13T09:27:36.382Z,37.42
2016-09-13T09:28:47.623Z,37.46
2016-09-13T09:29:58.650Z,37.53
2016-09-13T09:31:09.682Z,37.42
2016-09-13T09:32:20.709Z,37.57
2016-09-13T09:33:31.746Z,37.68
2016-09-13T09:34:42.776Z,37.65
2016-09-13T09:35:53.804Z,37.39
2016-09-13T09:37:04.838Z,37.45
2016-09-13T09:38:15.862Z,37.22
2016-09-13T09:39:26.890Z,37.3
2016-09-13T09:40:37.921Z,37.42
2016-09-13T09:41:48.941Z,37.42
2016-09-13T09:42:59.960Z,37.72
2016-09-13T09:44:10.991Z,37.86
2016-09-13T09:45:22.014Z,37.75
2016-09-13T09:46:33.095Z,37.87
2016-09-13T09:47:44.129Z,37.99
2016-09-13T09:48:55.154Z,37.99
2016-09-13T09:50:06.175Z,37.79
2016-09-13T09:51:17.208Z,37.68
2016-09-13T09:52:28.235Z,37.57
2016-09-13T09:53:39.263Z,37.54
2016-09-13T09:54:50.292Z,37.66
2016-09-13T09:56:01.318Z,37.62
2016-09-13T09:57:12.349Z,37.54
2016-09-13T09:58:23.391Z,37.53
2016-09-13T09:59:34.418Z,37.59
2016-09-13T10:00:45.448Z,37.41
2016-09-13T10:01:56.465Z,37.71
2016-09-13T10:03:07.498Z,37.94
2016-09-13T10:04:18.526Z,37.93
2016-09-13T10:05:29.553Z,37.96
2016-09-13T10:06:40.584Z,38.17
2016-09-13T10:07:51.631Z,38.18
2016-09-13T10:09:02.674Z,37.98
2016-09-13T10:10:13.701Z,37.94
2016-09-13T10:11:24.734Z,38.08
2016-09-13T10:12:35.756Z,37.94
2016-09-13T10:13:46.783Z,37.74
2016-09-13T10:14:57.812Z,37.37
2016-09-13T10:16:08.836Z,37.39
2016-09-13T10:17:19.882Z,37.37
2016-09-13T10:18:31.106Z,37.44
2016-09-13T10:19:42.137Z,37.64
2016-09-13T10:20:53.162Z,37.65
2016-09-13T10:22:04.194Z,37.3
2016-09-13T10:23:15.209Z,37.14
2016-09-13T10:24:26.266Z,37.08
2016-09-13T10:25:37.290Z,37.24
2016-09-13T10:26:48.320Z,37.15
2016-09-13T10:27:59.349Z,37
2016-09-13T10:29:10.579Z,37.23
2016-09-13T10:30:21.607Z,37.41
2016-09-13T10:31:32.847Z,37.44
2016-09-13T10:32:44.083Z,37.54
2016-09-13T10:33:55.114Z,37.44
2016-09-13T10:35:06.140Z,37.42
2016-09-13T10:36:17.369Z,37.42
2016-09-13T10:37:28.410Z,37.51
2016-09-13T10:38:39.448Z,37.69
2016-09-13T10:39:50.469Z,37.79
2016-09-13T10:41:01.496Z,37.96
2016-09-13T10:42:12.728Z,37.98
2016-09-13T10:43:23.757Z,38.21
2016-09-13T10:44:34.779Z,38.1
2016-09-13T10:45:45.811Z,38.12
2016-09-13T10:46:56.893Z,37.87
2016-09-13T10:48:07.940Z,37.86
2016-09-13T10:49:18.974Z,38
2016-09-13T10:50:30.018Z,38.02
2016-09-13T10:51:41.048Z,38.09
2016-09-13T10:52:52.077Z,38.13
2016-09-13T10:54:03.309Z,38.21
2016-09-13T10:55:14.337Z,38.09
2016-09-13T10:56:25.365Z,37.94
2016-09-13T10:57:36.389Z,38.1
2016-09-13T10:58:47.411Z,38.18
2016-09-13T10:59:58.454Z,38.09
2016-09-13T11:01:09.487Z,37.99
2016-09-13T11:02:20.514Z,37.79
2016-09-13T11:03:31.538Z,37.64
2016-09-13T11:04:42.566Z,37.66
2016-09-13T11:05:53.585Z,37.69
2016-09-13T11:07:04.613Z,37.61
2016-09-13T11:08:15.642Z,37.66
2016-09-13T11:09:26.669Z,37.84
2016-09-13T11:10:37.703Z,37.68
2016-09-13T11:11:48.729Z,37.76
2016-09-13T11:12:59.952Z,37.66
2016-09-13T11:14:10.983Z,37.68
2016-09-13T11:15:22.212Z,37.64
2016-09-13T11:16:33.241Z,37.59
2016-09-13T11:17:44.474Z,37.64
2016-09-13T11:18:55.507Z,37.41
2016-09-13T11:20:06.540Z,37.24
2016-09-13T11:21:17.568Z,37.12
2016-09-13T11:22:28.602Z,37.22
2016-09-13T11:23:39.841Z,37.08
2016-09-13T11:24:50.871Z,37.04
2016-09-13T11:26:01.898Z,37.12
2016-09-13T11:27:12.941Z,37.05
2016-09-13T11:28:23.974Z,36.81
2016-09-13T11:29:34.991Z,36.65
2016-09-13T11:30:46.206Z,36.7
2016-09-13T11:31:57.230Z,36.47
2016-09-13T11:33:08.258Z,36.4
2016-09-13T11:34:19.483Z,36.32
2016-09-13T11:35:30.707Z,36.44
2016-09-13T11:36:41.735Z,36.47
2016-09-13T11:37:52.762Z,36.56
2016-09-13T11:39:03.784Z,36.68
2016-09-13T11:40:14.817Z,36.61
2016-09-13T11:41:25.843Z,36.59
2016-09-13T11:42:36.872Z,36.68
2016-09-13T11:43:47.891Z,36.83
2016-09-13T11:44:58.919Z,36.88
2016-09-13T11:46:09.957Z,36.93
2016-09-13T11:47:21.029Z,37
2016-09-13T11:48:32.059Z,37.02
2016-09-13T11:49:43.087Z,37.02
2016-09-13T11:50:54.110Z,37.07
2016-09-13T11:52:05.141Z,37.19
2016-09-13T11:53:16.360Z,37.11
2016-09-13T11:54:27.376Z,37.17
2016-09-13T11:55:38.599Z,37.08
2016-09-13T11:56:49.623Z,37.08
2016-09-13T11:58:00.649Z,37.27
2016-09-13T11:59:11.674Z,37.44
2016-09-13T12:00:22.729Z,37.46
2016-09-13T12:01:33.757Z,37.56
2016-09-13T12:02:44.780Z,37.39
2016-09-13T12:03:55.807Z,37.23
2016-09-13T12:05:07.033Z,37.02
2016-09-13T12:06:18.061Z,37.07
2016-09-13T12:07:29.081Z,37.05
2016-09-13T12:08:40.114Z,37.07
2016-09-13T12:09:51.138Z,37.08
2016-09-13T12:11:02.153Z,37.12
2016-09-13T12:12:13.177Z,37.27
2016-09-13T12:13:24.201Z,37.57
2016-09-13T12:14:35.227Z,37.74
2016-09-13T12:15:46.252Z,37.84
2016-09-13T12:16:57.485Z,37.79
2016-09-13T12:18:08.511Z,37.61
2016-09-13T12:19:19.531Z,37.45
2016-09-13T12:20:30.553Z,37.23
2016-09-13T12:21:41.575Z,37.08
2016-09-13T12:22:52.600Z,36.78
2016-09-13T12:24:03.828Z,36.83
2016-09-13T12:25:14.849Z,36.86
2016-09-13T12:26:25.871Z,36.89
2016-09-13T12:27:37.294Z,36.86
2016-09-13T12:28:48.326Z,36.71
2016-09-13T12:29:59.551Z,36.58
2016-09-13T12:31:10.578Z,36.52
2016-09-13T12:32:21.600Z,36.43
2016-09-13T12:33:32.619Z,36.44
2016-09-13T12:34:43.639Z,36.43
2016-09-13T12:35:54.659Z,36.46
2016-09-13T12:37:05.876Z,36.52
2016-09-13T12:38:16.898Z,36.4
2016-09-13T12:39:28.129Z,36.46
2016-09-13T12:40:39.361Z,36.44
2016-09-13T12:41:50.385Z,36.4
2016-09-13T12:43:01.405Z,36.4
2016-09-13T12:44:12.429Z,36.33
2016-09-13T12:45:23.641Z,36.28
2016-09-13T12:46:34.663Z,36.21
2016-09-13T12:47:45.732Z,36.08
2016-09-13T12:48:56.744Z,36.01
2016-09-13T12:50:07.766Z,35.76
2016-09-13T12:51:18.787Z,35.77
2016-09-13T12:52:29.812Z,35.57
2016-09-13T12:53:40.821Z,35.53
2016-09-13T12:54:51.850Z,35.49
2016-09-13T12:56:02.861Z,35.46
2016-09-13T12:57:13.882Z,35.39
2016-09-13T12:58:25.104Z,35.4
2016-09-13T12:59:36.122Z,35.46
2016-09-13T13:00:47.154Z,35.43
2016-09-13T13:01:58.178Z,35.39
2016-09-13T13:03:09.189Z,35.4
2016-09-13T13:04:20.211Z,35.38
2016-09-13T13:05:31.229Z,35.38
2016-09-13T13:06:42.251Z,35.31
2016-09-13T13:07:53.266Z,35.3
2016-09-13T13:09:04.276Z,35.24
2016-09-13T13:10:15.501Z,35.27
2016-09-13T13:11:26.517Z,35.3
2016-09-13T13:12:37.537Z,35.35
2016-09-13T13:13:48.560Z,35.33
2016-09-13T13:14:59.778Z,35.34
2016-09-13T13:16:11.012Z,35.27
2016-09-13T13:17:22.035Z,35.23
2016-09-13T13:18:33.052Z,35.16
2016-09-13T13:19:44.083Z,35.08
2016-09-13T13:20:55.096Z,35.02
2016-09-13T13:22:06.119Z,34.97
2016-09-13T13:23:17.334Z,34.96
2016-09-13T13:24:28.358Z,34.86
2016-09-13T13:25:39.364Z,34.71
2016-09-13T13:26:50.382Z,34.74
2016-09-13T13:28:01.410Z,34.64
2016-09-13T13:29:12.624Z,34.63
2016-09-13T13:30:23.644Z,34.56
2016-09-13T13:31:34.665Z,34.58
2016-09-13T13:32:45.898Z,34.58
2016-09-13T13:33:56.926Z,34.39
2016-09-13T13:35:08.145Z,34.32
2016-09-13T13:36:19.164Z,34.22
2016-09-13T13:37:30.184Z,34.26
2016-09-13T13:38:41.202Z,34.11
2016-09-13T13:39:52.219Z,34.06
2016-09-13T13:41:03.447Z,34.06
2016-09-13T13:42:14.475Z,34
2016-09-13T13:43:25.486Z,34
2016-09-13T13:44:36.503Z,34
2016-09-13T13:45:47.521Z,33.93
2016-09-13T13:46:58.542Z,33.92
2016-09-13T13:48:09.610Z,33.92
2016-09-13T13:49:20.836Z,33.9
2016-09-13T13:50:32.064Z,33.92
2016-09-13T13:51:43.084Z,33.93
2016-09-13T13:52:54.299Z,33.87
2016-09-13T13:54:05.322Z,33.85
2016-09-13T13:55:16.336Z,33.83
2016-09-13T13:56:27.367Z,33.89
2016-09-13T13:57:38.386Z,33.96
2016-09-13T13:58:49.406Z,33.9
2016-09-13T14:00:00.421Z,33.92
2016-09-13T14:01:11.459Z,33.87
2016-09-13T14:02:22.473Z,33.95
2016-09-13T14:03:33.486Z,33.97
2016-09-13T14:04:44.726Z,34
2016-09-13T14:05:55.744Z,34.03
2016-09-13T14:07:06.761Z,33.95
2016-09-13T14:08:17.788Z,33.97
2016-09-13T14:09:29.005Z,33.97
2016-09-13T14:10:40.023Z,33.97
2016-09-13T14:11:51.040Z,33.97
2016-09-13T14:13:02.053Z,33.9
2016-09-13T14:14:13.067Z,33.83
2016-09-13T14:15:24.081Z,33.9
2016-09-13T14:16:35.089Z,33.99
2016-09-13T14:17:46.102Z,33.93
2016-09-13T14:18:57.316Z,33.9
2016-09-13T14:20:08.743Z,33.9
2016-09-13T14:21:19.761Z,33.89
2016-09-13T14:22:30.771Z,33.84
2016-09-13T14:23:41.791Z,33.85
2016-09-13T14:24:53.005Z,33.75
2016-09-13T14:26:04.016Z,33.8
2016-09-13T14:27:15.041Z,33.77
2016-09-13T14:28:26.092Z,33.66
2016-09-13T14:29:37.104Z,33.68
2016-09-13T14:30:48.120Z,33.58
2016-09-13T14:31:59.144Z,33.63
2016-09-13T14:33:10.162Z,33.62
2016-09-13T14:34:21.186Z,33.61
2016-09-13T14:35:32.400Z,33.62
2016-09-13T14:36:43.413Z,33.5
2016-09-13T14:37:54.439Z,33.44
2016-09-13T14:39:05.448Z,33.43
2016-09-13T14:40:16.469Z,33.36
2016-09-13T14:41:27.494Z,33.28
2016-09-13T14:42:38.509Z,33.17
2016-09-13T14:43:49.523Z,33.17
2016-09-13T14:45:00.541Z,33.13
2016-09-13T14:46:11.762Z,32.96
2016-09-13T14:47:22.789Z,32.99
2016-09-13T14:48:33.851Z,32.86
2016-09-13T14:49:45.079Z,32.83
2016-09-13T14:50:56.094Z,32.81
2016-09-13T14:52:07.113Z,32.76
2016-09-13T14:53:18.126Z,32.68
2016-09-13T14:54:29.140Z,32.71
2016-09-13T14:55:40.176Z,32.65
2016-09-13T14:56:51.196Z,32.54
2016-09-13T14:58:02.218Z,32.52
2016-09-13T14:59:13.237Z,32.46
2016-09-13T15:00:24.254Z,32.38
2016-09-13T15:01:35.272Z,32.37
2016-09-13T15:02:46.494Z,32.34
2016-09-13T15:03:57.507Z,32.32
2016-09-13T15:05:08.521Z,32.25
2016-09-13T15:06:19.535Z,32.27
2016-09-13T15:07:30.542Z,32.13
2016-09-13T15:08:41.545Z,32.12
2016-09-13T15:09:52.580Z,32.1
2016-09-13T15:11:03.600Z,32.13
2016-09-13T15:12:14.603Z,32.12
2016-09-13T15:13:25.853Z,32.13
2016-09-13T15:14:36.872Z,32.12
2016-09-13T15:15:47.903Z,32.17
2016-09-13T15:16:59.115Z,32.13
2016-09-13T15:18:10.137Z,32.03
2016-09-13T15:19:21.149Z,32.05